Bookmark and Share
Track history (hours):
 

Hong Xiang 2

Last reported at 2014-Apr-23 08:26 UTC. Time now 2014-Apr-23 09:31 UTC.
Position N 35°59' E 120°23'.

Length 96 m; draft 4.5 m.

Type: Ship (hazmat cat A). MMSI: 413413000.

NotesDate/timePositionNaut miles runAvg speedWind from/ knotsBaromVisibWave heightAir tempDewpointWater temp
2014-Apr-23 08:26N 35°59' E 120°23'0 0.0
2014-Apr-23 07:33N 35°59' E 120°23'0 0.0
2014-Apr-23 06:24N 35°59' E 120°23'0 0.1
2014-Apr-23 05:32N 35°59' E 120°23'0 0.1
2014-Apr-23 04:30N 35°59' E 120°23'0 0.0
2014-Apr-23 02:30N 35°59' E 120°23'0 0.0
2014-Apr-23 01:30N 35°59' E 120°23'0 0.0
2014-Apr-23 00:30N 35°59' E 120°23'0 0.1
2014-Apr-22 23:24N 35°59' E 120°23'0 0.1
2014-Apr-22 22:30N 35°59' E 120°23'0 0.0
2014-Apr-22 21:30N 35°59' E 120°23'0 0.0
2014-Apr-22 20:30N 35°59' E 120°23'0 0.0
2014-Apr-22 19:30N 35°59' E 120°23'0 0.0
2014-Apr-22 18:30N 35°59' E 120°23'0 0.0
2014-Apr-22 17:30N 35°59' E 120°23'0 0.0
2014-Apr-22 16:30N 35°59' E 120°23'0 0.1
2014-Apr-22 15:30N 35°59' E 120°23'0 0.0
2014-Apr-22 14:27N 35°59' E 120°23'0 0.0
2014-Apr-22 12:29N 35°59' E 120°23'  
2014-Apr-16 16:16N 30°22' E 122°52'3512.8
2014-Apr-16 13:30N 29°48' E 122°40'349 9.7
2014-Apr-15 01:33N 24°55' E 119°07'10 9.7
2014-Apr-15 00:33N 24°49' E 118°59'1110.1
2014-Apr-14 23:31N 24°43' E 118°49'19 9.6
2014-Apr-14 21:31N 24°27' E 118°37'18 9.0
2014-Apr-14 19:31N 24°14' E 118°23'8 8.0
2014-Apr-14 18:33N 24°08' E 118°17'8 7.5
2014-Apr-14 17:31N 24°04' E 118°11'13 6.8
2014-Apr-14 15:34N 23°55' E 117°59'7 6.7
2014-Apr-14 14:33N 23°51' E 117°53'7 7.5
2014-Apr-14 13:33N 23°47' E 117°47'16 8.1
2014-Apr-14 11:32N 23°37' E 117°32'221 8.9
2014-Apr-13 10:34N 22°09' E 113°52'1010.0
2014-Apr-13 09:32N 22°19' E 113°48'1110.9
2014-Apr-13 08:32N 22°29' E 113°45'  

Dump ship's entire track history

sailing weather and tide predictions

Hong Xiang 2 — BYBA — position and weather